Middle Torch Key, Florida
Current Conditions -  °F | °C
As of 2:53 PM on Saturday 25 Oct 2014 (Local Time) from KNQX Reporting Station
Scattered Clouds Scattered Clouds  
Wind Chill: 80°   Ceiling: Unl
Heat Index: 82°   Visibility: 10mi
Dew Point: 67°   Wind: 16mph
Humidity: 64%   Direction: 350°N
Pressure: 29.91"   Gusts: NA
Location:  24.6465°N, 81.5399°W
Report Text: KNQX 251853Z 35014KT 10SM FEW035 SCT200 27/19 A2991 RMK AO2 SLP128 T02670194 $
Loading
Personal Weather Stations






























Interactive Weather Map
Tropical Storm Tracking
New forecast layout! Learn more

10-Day Weather Forecast

Advertisements
Track Severe Weather on mobile